sensor_id;sensor_type;location;lat;lon;timestamp;pressure;altitude;pressure_sealevel;temperature;humidity
74915;BME280;63475;45.140;-75.616;2023-08-12T00:00:17;99975.59;;;24.94;52.54
74915;BME280;63475;45.140;-75.616;2023-08-12T00:02:19;99982.78;;;24.76;53.11
74915;BME280;63475;45.140;-75.616;2023-08-12T00:04:22;99971.09;;;24.62;52.97
74915;BME280;63475;45.140;-75.616;2023-08-12T00:06:24;99972.63;;;24.45;53.47
74915;BME280;63475;45.140;-75.616;2023-08-12T00:08:27;99971.81;;;24.31;54.41
74915;BME280;63475;45.140;-75.616;2023-08-12T00:10:31;99976.69;;;24.16;54.54
74915;BME280;63475;45.140;-75.616;2023-08-12T00:12:35;99973.34;;;24.00;55.49
74915;BME280;63475;45.140;-75.616;2023-08-12T00:14:37;99969.97;;;23.85;55.39
74915;BME280;63475;45.140;-75.616;2023-08-12T00:16:40;99972.91;;;23.70;55.52
74915;BME280;63475;45.140;-75.616;2023-08-12T00:18:42;99984.41;;;23.59;55.67
74915;BME280;63475;45.140;-75.616;2023-08-12T00:20:45;99988.19;;;23.45;56.02
74915;BME280;63475;45.140;-75.616;2023-08-12T00:22:48;99993.16;;;23.28;56.37
74915;BME280;63475;45.140;-75.616;2023-08-12T00:24:51;99997.09;;;23.13;56.86
74915;BME280;63475;45.140;-75.616;2023-08-12T00:26:54;99994.53;;;22.98;57.56
74915;BME280;63475;45.140;-75.616;2023-08-12T00:28:56;99996.38;;;22.84;57.43
74915;BME280;63475;45.140;-75.616;2023-08-12T00:30:59;99992.06;;;22.68;57.89
74915;BME280;63475;45.140;-75.616;2023-08-12T00:33:02;99991.00;;;22.56;58.29
74915;BME280;63475;45.140;-75.616;2023-08-12T00:35:05;99999.28;;;22.42;58.89
74915;BME280;63475;45.140;-75.616;2023-08-12T00:37:07;99994.78;;;22.27;59.02
74915;BME280;63475;45.140;-75.616;2023-08-12T00:39:10;99994.72;;;22.14;59.22
74915;BME280;63475;45.140;-75.616;2023-08-12T00:41:13;99994.81;;;21.99;59.71
74915;BME280;63475;45.140;-75.616;2023-08-12T00:43:16;100005.34;;;21.88;60.20
74915;BME280;63475;45.140;-75.616;2023-08-12T00:45:18;100007.13;;;21.74;60.55
74915;BME280;63475;45.140;-75.616;2023-08-12T00:47:21;100008.69;;;21.62;61.13
74915;BME280;63475;45.140;-75.616;2023-08-12T00:49:24;100007.53;;;21.50;61.38
74915;BME280;63475;45.140;-75.616;2023-08-12T00:51:27;100014.31;;;21.39;61.86
74915;BME280;63475;45.140;-75.616;2023-08-12T00:53:30;100018.91;;;21.24;62.23
74915;BME280;63475;45.140;-75.616;2023-08-12T00:55:36;100019.03;;;21.16;62.30
74915;BME280;63475;45.140;-75.616;2023-08-12T00:57:38;100024.31;;;21.02;62.64
74915;BME280;63475;45.140;-75.616;2023-08-12T00:59:44;100025.63;;;20.92;62.88
74915;BME280;63475;45.140;-75.616;2023-08-12T01:01:47;100034.53;;;20.86;63.18
74915;BME280;63475;45.140;-75.616;2023-08-12T01:03:50;100030.25;;;20.77;63.59
74915;BME280;63475;45.140;-75.616;2023-08-12T01:05:55;100033.22;;;20.67;64.17
74915;BME280;63475;45.140;-75.616;2023-08-12T01:07:57;100035.03;;;20.60;64.66
74915;BME280;63475;45.140;-75.616;2023-08-12T01:10:00;100033.25;;;20.52;64.81
74915;BME280;63475;45.140;-75.616;2023-08-12T01:12:06;100044.31;;;20.43;64.89
74915;BME280;63475;45.140;-75.616;2023-08-12T01:14:22;100036.28;;;20.34;65.40
74915;BME280;63475;45.140;-75.616;2023-08-12T01:16:30;100044.88;;;20.23;65.32
74915;BME280;63475;45.140;-75.616;2023-08-12T01:18:35;100052.44;;;20.13;65.45
74915;BME280;63475;45.140;-75.616;2023-08-12T01:20:39;100052.50;;;20.05;65.89
74915;BME280;63475;45.140;-75.616;2023-08-12T01:22:44;100045.09;;;19.99;66.04
74915;BME280;63475;45.140;-75.616;2023-08-12T01:24:46;100047.06;;;19.90;66.24
74915;BME280;63475;45.140;-75.616;2023-08-12T01:26:49;100053.00;;;19.86;66.28
74915;BME280;63475;45.140;-75.616;2023-08-12T01:28:51;100056.63;;;19.78;66.55
74915;BME280;63475;45.140;-75.616;2023-08-12T01:33:39;100054.69;;;19.64;67.10
74915;BME280;63475;45.140;-75.616;2023-08-12T01:35:45;100060.31;;;19.54;67.15
74915;BME280;63475;45.140;-75.616;2023-08-12T01:37:51;100070.19;;;19.47;67.27
74915;BME280;63475;45.140;-75.616;2023-08-12T01:39:55;100058.56;;;19.39;67.61
74915;BME280;63475;45.140;-75.616;2023-08-12T01:41:59;100074.97;;;19.37;67.42
74915;BME280;63475;45.140;-75.616;2023-08-12T01:44:03;100074.00;;;19.30;67.70
74915;BME280;63475;45.140;-75.616;2023-08-12T01:46:06;100068.00;;;19.20;68.00
74915;BME280;63475;45.140;-75.616;2023-08-12T01:48:09;100087.59;;;19.22;67.96
74915;BME280;63475;45.140;-75.616;2023-08-12T01:50:11;100084.91;;;19.14;67.78
74915;BME280;63475;45.140;-75.616;2023-08-12T01:52:14;100086.94;;;19.12;67.89
74915;BME280;63475;45.140;-75.616;2023-08-12T01:54:17;100075.19;;;19.05;68.05
74915;BME280;63475;45.140;-75.616;2023-08-12T01:56:20;100087.34;;;19.01;68.71
74915;BME280;63475;45.140;-75.616;2023-08-12T01:58:22;100088.72;;;18.96;68.47
74915;BME280;63475;45.140;-75.616;2023-08-12T02:00:25;100088.56;;;18.90;68.52
74915;BME280;63475;45.140;-75.616;2023-08-12T02:02:27;100085.69;;;18.83;69.02
74915;BME280;63475;45.140;-75.616;2023-08-12T02:04:30;100088.09;;;18.78;68.64
74915;BME280;63475;45.140;-75.616;2023-08-12T02:06:33;100094.84;;;18.74;68.68
74915;BME280;63475;45.140;-75.616;2023-08-12T02:08:36;100085.56;;;18.69;68.55
74915;BME280;63475;45.140;-75.616;2023-08-12T02:10:39;100099.59;;;18.64;68.89
74915;BME280;63475;45.140;-75.616;2023-08-12T02:12:41;100094.06;;;18.57;69.05
74915;BME280;63475;45.140;-75.616;2023-08-12T02:14:44;100093.06;;;18.50;69.42
74915;BME280;63475;45.140;-75.616;2023-08-12T02:16:47;100102.34;;;18.48;69.63
74915;BME280;63475;45.140;-75.616;2023-08-12T02:18:49;100106.56;;;18.42;69.58
74915;BME280;63475;45.140;-75.616;2023-08-12T02:20:52;100104.75;;;18.35;69.74
74915;BME280;63475;45.140;-75.616;2023-08-12T02:22:54;100110.16;;;18.35;69.70
74915;BME280;63475;45.140;-75.616;2023-08-12T02:24:57;100104.59;;;18.28;70.19
74915;BME280;63475;45.140;-75.616;2023-08-12T02:26:59;100104.59;;;18.28;70.63
74915;BME280;63475;45.140;-75.616;2023-08-12T02:29:02;100097.84;;;18.24;70.52
74915;BME280;63475;45.140;-75.616;2023-08-12T02:31:05;100108.97;;;18.21;70.69
74915;BME280;63475;45.140;-75.616;2023-08-12T02:33:07;100101.38;;;18.16;70.82
74915;BME280;63475;45.140;-75.616;2023-08-12T02:35:10;100091.63;;;18.07;70.52
74915;BME280;63475;45.140;-75.616;2023-08-12T02:37:12;100107.81;;;18.07;70.71
74915;BME280;63475;45.140;-75.616;2023-08-12T02:39:16;100108.13;;;18.04;70.64
74915;BME280;63475;45.140;-75.616;2023-08-12T02:41:18;100105.06;;;17.99;71.18
74915;BME280;63475;45.140;-75.616;2023-08-12T02:43:22;100107.09;;;17.97;71.10
74915;BME280;63475;45.140;-75.616;2023-08-12T02:45:24;100107.78;;;17.91;71.13
74915;BME280;63475;45.140;-75.616;2023-08-12T02:47:27;100090.06;;;17.80;71.17
74915;BME280;63475;45.140;-75.616;2023-08-12T02:49:30;100109.28;;;17.85;71.37
74915;BME280;63475;45.140;-75.616;2023-08-12T02:51:33;100107.78;;;17.83;71.70
74915;BME280;63475;45.140;-75.616;2023-08-12T02:53:35;100107.25;;;17.79;71.68
74915;BME280;63475;45.140;-75.616;2023-08-12T02:55:38;100098.81;;;17.74;71.49
74915;BME280;63475;45.140;-75.616;2023-08-12T02:57:40;100099.66;;;17.75;71.90
74915;BME280;63475;45.140;-75.616;2023-08-12T02:59:43;100103.53;;;17.72;72.10
74915;BME280;63475;45.140;-75.616;2023-08-12T03:01:46;100100.19;;;17.70;72.09
74915;BME280;63475;45.140;-75.616;2023-08-12T03:03:48;100101.69;;;17.65;72.08
74915;BME280;63475;45.140;-75.616;2023-08-12T03:05:51;100102.19;;;17.60;72.26
74915;BME280;63475;45.140;-75.616;2023-08-12T03:07:53;100096.28;;;17.56;72.17
74915;BME280;63475;45.140;-75.616;2023-08-12T03:09:56;100097.59;;;17.52;72.40
74915;BME280;63475;45.140;-75.616;2023-08-12T03:11:58;100103.31;;;17.49;72.43
74915;BME280;63475;45.140;-75.616;2023-08-12T03:14:03;100092.91;;;17.46;72.47
74915;BME280;63475;45.140;-75.616;2023-08-12T03:16:11;100080.75;;;17.42;72.65
74915;BME280;63475;45.140;-75.616;2023-08-12T03:18:14;100093.38;;;17.42;72.79
74915;BME280;63475;45.140;-75.616;2023-08-12T03:20:17;100085.63;;;17.39;72.82
74915;BME280;63475;45.140;-75.616;2023-08-12T03:22:20;100099.59;;;17.34;72.85
74915;BME280;63475;45.140;-75.616;2023-08-12T03:24:23;100096.53;;;17.29;73.25
74915;BME280;63475;45.140;-75.616;2023-08-12T03:26:26;100101.41;;;17.25;73.12
74915;BME280;63475;45.140;-75.616;2023-08-12T03:28:29;100098.91;;;17.24;73.48
74915;BME280;63475;45.140;-75.616;2023-08-12T03:30:31;100102.94;;;17.20;73.30
74915;BME280;63475;45.140;-75.616;2023-08-12T03:32:34;100097.88;;;17.17;73.58
74915;BME280;63475;45.140;-75.616;2023-08-12T03:34:37;100096.81;;;17.10;73.56
74915;BME280;63475;45.140;-75.616;2023-08-12T03:36:39;100101.38;;;17.09;73.75
74915;BME280;63475;45.140;-75.616;2023-08-12T03:38:42;100097.44;;;17.04;74.07
74915;BME280;63475;45.140;-75.616;2023-08-12T03:40:45;100097.78;;;17.01;73.93
74915;BME280;63475;45.140;-75.616;2023-08-12T03:42:48;100098.44;;;16.94;74.53
74915;BME280;63475;45.140;-75.616;2023-08-12T03:44:50;100102.44;;;16.90;74.41
74915;BME280;63475;45.140;-75.616;2023-08-12T03:46:53;100109.16;;;16.86;74.49
74915;BME280;63475;45.140;-75.616;2023-08-12T03:48:56;100107.09;;;16.80;74.81
74915;BME280;63475;45.140;-75.616;2023-08-12T03:50:58;100104.59;;;16.79;75.22
74915;BME280;63475;45.140;-75.616;2023-08-12T03:53:01;100102.38;;;16.74;74.86
74915;BME280;63475;45.140;-75.616;2023-08-12T03:55:04;100100.00;;;16.71;75.29
74915;BME280;63475;45.140;-75.616;2023-08-12T03:57:07;100113.47;;;16.71;75.56
74915;BME280;63475;45.140;-75.616;2023-08-12T03:59:10;100109.25;;;16.69;75.64
74915;BME280;63475;45.140;-75.616;2023-08-12T04:01:12;100110.41;;;16.66;75.28
74915;BME280;63475;45.140;-75.616;2023-08-12T04:03:15;100109.88;;;16.63;75.26
74915;BME280;63475;45.140;-75.616;2023-08-12T04:05:18;100112.03;;;16.59;75.44
74915;BME280;63475;45.140;-75.616;2023-08-12T04:07:20;100122.97;;;16.57;75.38
74915;BME280;63475;45.140;-75.616;2023-08-12T04:09:23;100125.84;;;16.56;75.66
74915;BME280;63475;45.140;-75.616;2023-08-12T04:11:26;100125.00;;;16.55;75.72
74915;BME280;63475;45.140;-75.616;2023-08-12T04:13:28;100119.94;;;16.52;75.96
74915;BME280;63475;45.140;-75.616;2023-08-12T04:15:31;100119.09;;;16.52;76.10
74915;BME280;63475;45.140;-75.616;2023-08-12T04:17:33;100119.41;;;16.49;76.02
74915;BME280;63475;45.140;-75.616;2023-08-12T04:19:36;100118.88;;;16.45;75.87
74915;BME280;63475;45.140;-75.616;2023-08-12T04:21:38;100131.16;;;16.48;76.17
74915;BME280;63475;45.140;-75.616;2023-08-12T04:23:41;100125.94;;;16.46;76.29
74915;BME280;63475;45.140;-75.616;2023-08-12T04:25:44;100126.63;;;16.48;76.35
74915;BME280;63475;45.140;-75.616;2023-08-12T04:27:47;100123.41;;;16.45;76.17
74915;BME280;63475;45.140;-75.616;2023-08-12T04:29:51;100120.88;;;16.43;76.49
74915;BME280;63475;45.140;-75.616;2023-08-12T04:31:53;100122.56;;;16.44;76.62
74915;BME280;63475;45.140;-75.616;2023-08-12T04:33:56;100116.19;;;16.45;76.58
74915;BME280;63475;45.140;-75.616;2023-08-12T04:35:59;100112.78;;;16.43;77.20
74915;BME280;63475;45.140;-75.616;2023-08-12T04:38:01;100109.25;;;16.43;76.74
74915;BME280;63475;45.140;-75.616;2023-08-12T04:40:05;100106.72;;;16.41;77.23
74915;BME280;63475;45.140;-75.616;2023-08-12T04:42:09;100107.56;;;16.42;76.96
74915;BME280;63475;45.140;-75.616;2023-08-12T04:44:11;100111.25;;;16.41;76.96
74915;BME280;63475;45.140;-75.616;2023-08-12T04:46:14;100110.56;;;16.39;77.47
74915;BME280;63475;45.140;-75.616;2023-08-12T04:48:17;100106.88;;;16.40;77.12
74915;BME280;63475;45.140;-75.616;2023-08-12T04:50:19;100106.03;;;16.39;77.11
74915;BME280;63475;45.140;-75.616;2023-08-12T04:52:22;100104.50;;;16.37;77.37
74915;BME280;63475;45.140;-75.616;2023-08-12T04:54:24;100106.19;;;16.38;77.19
74915;BME280;63475;45.140;-75.616;2023-08-12T04:56:27;100104.50;;;16.37;77.07
74915;BME280;63475;45.140;-75.616;2023-08-12T04:58:33;100101.97;;;16.35;76.83
74915;BME280;63475;45.140;-75.616;2023-08-12T05:00:35;100101.47;;;16.32;76.74
74915;BME280;63475;45.140;-75.616;2023-08-12T05:02:38;100096.22;;;16.30;76.86
74915;BME280;63475;45.140;-75.616;2023-08-12T05:04:41;100110.22;;;16.34;77.12
74915;BME280;63475;45.140;-75.616;2023-08-12T05:06:44;100100.63;;;16.31;77.31
74915;BME280;63475;45.140;-75.616;2023-08-12T05:08:46;100098.06;;;16.30;77.07
74915;BME280;63475;45.140;-75.616;2023-08-12T05:10:49;100101.63;;;16.30;76.98
74915;BME280;63475;45.140;-75.616;2023-08-12T05:12:52;100098.94;;;16.30;77.29
74915;BME280;63475;45.140;-75.616;2023-08-12T05:14:56;100094.53;;;16.29;77.32
74915;BME280;63475;45.140;-75.616;2023-08-12T05:16:58;100099.06;;;16.29;77.31
74915;BME280;63475;45.140;-75.616;2023-08-12T05:19:01;100079.91;;;16.14;77.25
74915;BME280;63475;45.140;-75.616;2023-08-12T05:21:03;100099.53;;;16.24;77.37
74915;BME280;63475;45.140;-75.616;2023-08-12T05:23:06;100098.00;;;16.21;77.69
74915;BME280;63475;45.140;-75.616;2023-08-12T05:25:09;100090.25;;;16.18;77.83
74915;BME280;63475;45.140;-75.616;2023-08-12T05:27:11;100086.19;;;16.14;78.02
74915;BME280;63475;45.140;-75.616;2023-08-12T05:29:14;100093.94;;;16.17;77.72
74915;BME280;63475;45.140;-75.616;2023-08-12T05:31:16;100081.47;;;16.16;77.86
74915;BME280;63475;45.140;-75.616;2023-08-12T05:33:19;100083.47;;;16.14;78.17
74915;BME280;63475;45.140;-75.616;2023-08-12T05:35:22;100085.19;;;16.15;77.68
74915;BME280;63475;45.140;-75.616;2023-08-12T05:37:24;100100.31;;;16.16;77.88
74915;BME280;63475;45.140;-75.616;2023-08-12T05:39:27;100087.16;;;16.13;78.22
74915;BME280;63475;45.140;-75.616;2023-08-12T05:41:30;100083.59;;;16.13;78.24
74915;BME280;63475;45.140;-75.616;2023-08-12T05:43:32;100088.00;;;16.14;78.56
74915;BME280;63475;45.140;-75.616;2023-08-12T05:45:35;100081.09;;;16.11;78.13
74915;BME280;63475;45.140;-75.616;2023-08-12T05:47:38;100086.50;;;16.11;77.91
74915;BME280;63475;45.140;-75.616;2023-08-12T05:49:40;100082.94;;;16.11;78.08
74915;BME280;63475;45.140;-75.616;2023-08-12T05:51:44;100084.78;;;16.10;78.70
74915;BME280;63475;45.140;-75.616;2023-08-12T05:53:48;100085.94;;;16.08;78.57
74915;BME280;63475;45.140;-75.616;2023-08-12T05:55:51;100084.72;;;16.02;79.34
74915;BME280;63475;45.140;-75.616;2023-08-12T05:57:53;100107.94;;;16.03;78.98
74915;BME280;63475;45.140;-75.616;2023-08-12T05:59:56;100109.78;;;16.03;79.11
74915;BME280;63475;45.140;-75.616;2023-08-12T06:01:58;100108.09;;;16.02;78.25
74915;BME280;63475;45.140;-75.616;2023-08-12T06:04:01;100101.03;;;16.01;78.04
74915;BME280;63475;45.140;-75.616;2023-08-12T06:06:04;100091.41;;;15.98;78.03
74915;BME280;63475;45.140;-75.616;2023-08-12T06:08:06;100102.03;;;16.00;77.92
74915;BME280;63475;45.140;-75.616;2023-08-12T06:10:10;100105.84;;;15.97;77.67
74915;BME280;63475;45.140;-75.616;2023-08-12T06:12:12;100099.78;;;15.95;77.93
74915;BME280;63475;45.140;-75.616;2023-08-12T06:14:15;100101.63;;;15.94;78.10
74915;BME280;63475;45.140;-75.616;2023-08-12T06:16:18;100099.09;;;15.93;78.02
74915;BME280;63475;45.140;-75.616;2023-08-12T06:18:20;100098.41;;;15.91;77.96
74915;BME280;63475;45.140;-75.616;2023-08-12T06:20:23;100098.41;;;15.91;78.28
74915;BME280;63475;45.140;-75.616;2023-08-12T06:22:26;100088.13;;;15.86;78.53
74915;BME280;63475;45.140;-75.616;2023-08-12T06:24:29;100097.75;;;15.89;78.01
74915;BME280;63475;45.140;-75.616;2023-08-12T06:26:31;100090.53;;;15.89;78.10
74915;BME280;63475;45.140;-75.616;2023-08-12T06:28:34;100087.97;;;15.88;78.59
74915;BME280;63475;45.140;-75.616;2023-08-12T06:30:37;100086.28;;;15.87;78.47
74915;BME280;63475;45.140;-75.616;2023-08-12T06:32:40;100084.44;;;15.87;78.91
74915;BME280;63475;45.140;-75.616;2023-08-12T06:34:43;100079.22;;;15.86;78.57
74915;BME280;63475;45.140;-75.616;2023-08-12T06:36:45;100080.22;;;15.85;79.18
74915;BME280;63475;45.140;-75.616;2023-08-12T06:38:48;100083.91;;;15.84;79.37
74915;BME280;63475;45.140;-75.616;2023-08-12T06:40:50;100080.38;;;15.83;79.45
74915;BME280;63475;45.140;-75.616;2023-08-12T06:42:53;100082.38;;;15.81;78.56
74915;BME280;63475;45.140;-75.616;2023-08-12T06:44:57;100080.00;;;15.78;78.82
74915;BME280;63475;45.140;-75.616;2023-08-12T06:47:00;100079.44;;;15.75;78.41
74915;BME280;63475;45.140;-75.616;2023-08-12T06:49:03;100091.59;;;15.79;78.83
74915;BME280;63475;45.140;-75.616;2023-08-12T06:51:05;100089.34;;;15.74;78.88
74915;BME280;63475;45.140;-75.616;2023-08-12T06:53:12;100091.06;;;15.75;79.14
74915;BME280;63475;45.140;-75.616;2023-08-12T06:55:15;100090.06;;;15.76;78.49
74915;BME280;63475;45.140;-75.616;2023-08-12T06:57:17;100092.03;;;15.74;78.38
74915;BME280;63475;45.140;-75.616;2023-08-12T06:59:20;100089.50;;;15.73;78.82
74915;BME280;63475;45.140;-75.616;2023-08-12T07:01:22;100088.81;;;15.71;79.06
74915;BME280;63475;45.140;-75.616;2023-08-12T07:03:25;100091.50;;;15.71;79.12
74915;BME280;63475;45.140;-75.616;2023-08-12T07:05:28;100088.81;;;15.71;79.10
74915;BME280;63475;45.140;-75.616;2023-08-12T07:07:30;100095.19;;;15.70;78.62
74915;BME280;63475;45.140;-75.616;2023-08-12T07:09:33;100095.53;;;15.67;78.69
74915;BME280;63475;45.140;-75.616;2023-08-12T07:11:35;100087.47;;;15.67;78.53
74915;BME280;63475;45.140;-75.616;2023-08-12T07:13:38;100089.31;;;15.66;79.11
74915;BME280;63475;45.140;-75.616;2023-08-12T07:15:41;100090.47;;;15.64;78.79
74915;BME280;63475;45.140;-75.616;2023-08-12T07:17:43;100087.06;;;15.62;79.04
74915;BME280;63475;45.140;-75.616;2023-08-12T07:19:47;100077.91;;;15.54;79.30
74915;BME280;63475;45.140;-75.616;2023-08-12T07:21:49;100087.53;;;15.57;78.93
74915;BME280;63475;45.140;-75.616;2023-08-12T07:23:52;100093.06;;;15.55;78.63
74915;BME280;63475;45.140;-75.616;2023-08-12T07:26:04;100093.91;;;15.56;78.94
74915;BME280;63475;45.140;-75.616;2023-08-12T07:28:07;100087.84;;;15.54;78.87
74915;BME280;63475;45.140;-75.616;2023-08-12T07:30:10;100091.28;;;15.46;79.07
74915;BME280;63475;45.140;-75.616;2023-08-12T07:32:13;100084.38;;;15.44;78.95
74915;BME280;63475;45.140;-75.616;2023-08-12T07:34:16;100098.34;;;15.47;79.35
74915;BME280;63475;45.140;-75.616;2023-08-12T07:36:18;100097.66;;;15.45;79.47
74915;BME280;63475;45.140;-75.616;2023-08-12T07:38:21;100097.97;;;15.42;79.48
74915;BME280;63475;45.140;-75.616;2023-08-12T07:40:23;100095.28;;;15.42;79.46
74915;BME280;63475;45.140;-75.616;2023-08-12T07:42:26;100094.91;;;15.37;79.53
74915;BME280;63475;45.140;-75.616;2023-08-12T07:44:29;100095.03;;;15.36;79.37
74915;BME280;63475;45.140;-75.616;2023-08-12T07:46:32;100098.72;;;15.35;79.66
74915;BME280;63475;45.140;-75.616;2023-08-12T07:48:34;100090.41;;;15.28;79.89
74915;BME280;63475;45.140;-75.616;2023-08-12T07:50:37;100087.59;;;15.30;80.09
74915;BME280;63475;45.140;-75.616;2023-08-12T07:52:39;100100.47;;;15.26;79.78
74915;BME280;63475;45.140;-75.616;2023-08-12T07:54:42;100102.16;;;15.27;79.92
74915;BME280;63475;45.140;-75.616;2023-08-12T07:56:44;100096.94;;;15.25;80.53
74915;BME280;63475;45.140;-75.616;2023-08-12T07:58:47;100093.34;;;15.17;80.26
74915;BME280;63475;45.140;-75.616;2023-08-12T08:00:52;100096.88;;;15.17;80.25
74915;BME280;63475;45.140;-75.616;2023-08-12T08:02:56;100097.56;;;15.19;80.56
74915;BME280;63475;45.140;-75.616;2023-08-12T08:04:58;100107.47;;;15.19;80.38
74915;BME280;63475;45.140;-75.616;2023-08-12T08:07:01;100104.06;;;15.17;80.44
74915;BME280;63475;45.140;-75.616;2023-08-12T08:09:04;100108.75;;;15.15;80.69
74915;BME280;63475;45.140;-75.616;2023-08-12T08:11:06;100099.97;;;15.13;80.35
74915;BME280;63475;45.140;-75.616;2023-08-12T08:13:09;100108.03;;;15.13;80.46
74915;BME280;63475;45.140;-75.616;2023-08-12T08:15:12;100115.25;;;15.12;80.38
74915;BME280;63475;45.140;-75.616;2023-08-12T08:17:14;100106.34;;;15.12;80.59
74915;BME280;63475;45.140;-75.616;2023-08-12T08:19:17;100095.59;;;15.12;80.45
74915;BME280;63475;45.140;-75.616;2023-08-12T08:21:20;100098.28;;;15.12;80.50
74915;BME280;63475;45.140;-75.616;2023-08-12T08:23:23;100099.13;;;15.12;80.28
74915;BME280;63475;45.140;-75.616;2023-08-12T08:25:25;100102.66;;;15.13;80.24
74915;BME280;63475;45.140;-75.616;2023-08-12T08:27:28;100101.94;;;15.11;80.13
74915;BME280;63475;45.140;-75.616;2023-08-12T08:29:30;100089.38;;;15.11;80.45
74915;BME280;63475;45.140;-75.616;2023-08-12T08:31:33;100097.28;;;15.13;80.02
74915;BME280;63475;45.140;-75.616;2023-08-12T08:33:36;100102.09;;;15.09;80.21
74915;BME280;63475;45.140;-75.616;2023-08-12T08:35:38;100100.97;;;15.12;80.06
74915;BME280;63475;45.140;-75.616;2023-08-12T08:37:41;100090.66;;;15.07;80.34
74915;BME280;63475;45.140;-75.616;2023-08-12T08:39:43;100101.81;;;15.12;80.28
74915;BME280;63475;45.140;-75.616;2023-08-12T08:41:48;100103.66;;;15.12;80.00
74915;BME280;63475;45.140;-75.616;2023-08-12T08:43:52;100103.66;;;15.12;79.90
74915;BME280;63475;45.140;-75.616;2023-08-12T08:45:57;100090.34;;;15.10;79.96
74915;BME280;63475;45.140;-75.616;2023-08-12T08:48:02;100085.00;;;15.10;80.39
74915;BME280;63475;45.140;-75.616;2023-08-12T08:50:05;100080.47;;;15.11;80.20
74915;BME280;63475;45.140;-75.616;2023-08-12T08:52:08;100086.69;;;15.11;80.22
74915;BME280;63475;45.140;-75.616;2023-08-12T08:54:12;100076.38;;;15.07;80.53
74915;BME280;63475;45.140;-75.616;2023-08-12T08:56:15;100078.78;;;15.10;80.19
74915;BME280;63475;45.140;-75.616;2023-08-12T08:58:18;100077.38;;;15.06;80.30
74915;BME280;63475;45.140;-75.616;2023-08-12T09:00:23;100078.06;;;15.08;80.42
74915;BME280;63475;45.140;-75.616;2023-08-12T09:02:26;100086.81;;;15.10;80.34
74915;BME280;63475;45.140;-75.616;2023-08-12T09:04:29;100101.25;;;15.09;80.46
74915;BME280;63475;45.140;-75.616;2023-08-12T09:06:32;100096.19;;;15.06;80.84
74915;BME280;63475;45.140;-75.616;2023-08-12T09:08:40;100097.03;;;15.06;80.69
74915;BME280;63475;45.140;-75.616;2023-08-12T09:10:43;100102.25;;;15.08;80.24
74915;BME280;63475;45.140;-75.616;2023-08-12T09:12:46;100101.56;;;15.06;79.58
74915;BME280;63475;45.140;-75.616;2023-08-12T09:14:49;100099.84;;;15.05;79.86
74915;BME280;63475;45.140;-75.616;2023-08-12T09:16:52;100103.53;;;15.04;80.02
74915;BME280;63475;45.140;-75.616;2023-08-12T09:18:58;100111.75;;;15.02;79.96
74915;BME280;63475;45.140;-75.616;2023-08-12T09:21:00;100111.59;;;15.04;79.99
74915;BME280;63475;45.140;-75.616;2023-08-12T09:23:03;100106.38;;;15.02;79.55
74915;BME280;63475;45.140;-75.616;2023-08-12T09:25:06;100097.63;;;15.00;79.85
74915;BME280;63475;45.140;-75.616;2023-08-12T09:27:10;100093.09;;;15.01;80.19
74915;BME280;63475;45.140;-75.616;2023-08-12T09:29:12;100094.06;;;15.00;80.12
74915;BME280;63475;45.140;-75.616;2023-08-12T09:31:29;100086.66;;;14.94;80.12
74915;BME280;63475;45.140;-75.616;2023-08-12T09:33:32;100096.09;;;14.98;80.34
74915;BME280;63475;45.140;-75.616;2023-08-12T09:35:36;100096.41;;;14.95;80.44
74915;BME280;63475;45.140;-75.616;2023-08-12T09:37:39;100094.84;;;14.92;80.51
74915;BME280;63475;45.140;-75.616;2023-08-12T09:39:43;100087.22;;;14.87;80.56
74915;BME280;63475;45.140;-75.616;2023-08-12T09:41:47;100083.84;;;14.85;80.65
74915;BME280;63475;45.140;-75.616;2023-08-12T09:43:51;100072.69;;;14.80;81.28
74915;BME280;63475;45.140;-75.616;2023-08-12T09:45:57;100086.81;;;14.82;81.38
74915;BME280;63475;45.140;-75.616;2023-08-12T09:48:04;100089.81;;;14.79;81.60
74915;BME280;63475;45.140;-75.616;2023-08-12T09:50:07;100089.81;;;14.79;81.79
74915;BME280;63475;45.140;-75.616;2023-08-12T09:52:10;100090.13;;;14.76;81.93
74915;BME280;63475;45.140;-75.616;2023-08-12T09:54:13;100106.25;;;14.76;82.21
74915;BME280;63475;45.140;-75.616;2023-08-12T09:56:19;100079.16;;;14.60;82.31
74915;BME280;63475;45.140;-75.616;2023-08-12T09:58:25;100096.78;;;14.72;82.30
74915;BME280;63475;45.140;-75.616;2023-08-12T10:00:31;100096.09;;;14.70;82.16
74915;BME280;63475;45.140;-75.616;2023-08-12T10:02:35;100099.47;;;14.72;82.42
74915;BME280;63475;45.140;-75.616;2023-08-12T10:04:42;100101.16;;;14.73;82.19
74915;BME280;63475;45.140;-75.616;2023-08-12T10:06:47;100106.53;;;14.73;82.42
74915;BME280;63475;45.140;-75.616;2023-08-12T10:08:50;100116.56;;;14.71;82.99
74915;BME280;63475;45.140;-75.616;2023-08-12T10:10:53;100109.34;;;14.72;82.68
74915;BME280;63475;45.140;-75.616;2023-08-12T10:13:13;100119.25;;;14.71;82.97
74915;BME280;63475;45.140;-75.616;2023-08-12T10:15:17;100123.78;;;14.71;83.11
74915;BME280;63475;45.140;-75.616;2023-08-12T10:17:20;100115.44;;;14.64;82.86
74915;BME280;63475;45.140;-75.616;2023-08-12T10:19:46;100127.59;;;14.68;82.90
74915;BME280;63475;45.140;-75.616;2023-08-12T10:21:50;100131.13;;;14.69;82.72
74915;BME280;63475;45.140;-75.616;2023-08-12T10:23:58;100129.28;;;14.69;83.03
74915;BME280;63475;45.140;-75.616;2023-08-12T10:26:01;100130.97;;;14.70;83.14
74915;BME280;63475;45.140;-75.616;2023-08-12T10:28:05;100128.31;;;14.70;83.05
74915;BME280;63475;45.140;-75.616;2023-08-12T10:30:07;100117.84;;;14.67;83.10